Time;durP1;ratioP1;P1;durP2;ratioP2;P2;SDS_P1;SDS_P2;PMS_P1;PMS_P2;Temp;Humidity;BMP_temperature;BMP_pressure;BME280_temperature;BME280_humidity;BME280_pressure;Samples;Min_cycle;Max_cycle;Signal;HPM_P1;HPM_P2
2022/01/19 00:00:16;;;;;;;29.08;14.52;;;6.30;99.90;;;;;;5074669;28;20202;-75
2022/01/19 00:02:43;;;;;;;30.35;12.00;;;6.20;99.90;;;;;;5071120;28;20765;-72
2022/01/19 00:05:13;;;;;;;25.88;12.65;;;6.20;99.90;;;;;;5076470;28;20293;-75
2022/01/19 00:07:40;;;;;;;32.67;14.15;;;6.30;99.90;;;;;;5076463;28;20287;-74
2022/01/19 00:10:11;;;;;;;31.15;13.13;;;6.20;99.90;;;;;;5076451;28;20290;-75
2022/01/19 00:12:39;;;;;;;29.27;14.30;;;6.20;99.90;;;;;;5075138;28;20270;-74
2022/01/19 00:15:08;;;;;;;26.42;13.68;;;6.20;99.90;;;;;;5076668;28;20204;-76
2022/01/19 00:17:36;;;;;;;23.85;14.15;;;6.20;99.90;;;;;;5074886;28;20688;-75
2022/01/19 00:20:04;;;;;;;27.05;13.20;;;6.20;99.90;;;;;;5075358;28;20286;-75
2022/01/19 00:22:31;;;;;;;27.52;12.75;;;6.30;99.90;;;;;;5075740;28;20224;-74
2022/01/19 00:25:07;;;;;;;31.80;13.88;;;6.20;99.90;;;;;;5076572;28;20390;-74
2022/01/19 00:27:34;;;;;;;33.20;14.85;;;6.10;99.90;;;;;;5074967;28;20191;-76
2022/01/19 00:30:01;;;;;;;26.77;14.93;;;6.10;99.90;;;;;;5075155;28;20617;-75
2022/01/19 00:32:29;;;;;;;25.85;12.93;;;6.10;99.90;;;;;;5075746;28;20234;-74
2022/01/19 00:34:58;;;;;;;36.28;16.05;;;6.10;99.90;;;;;;5075467;28;20219;-74
2022/01/19 00:37:25;;;;;;;26.83;14.82;;;6.10;99.90;;;;;;5075689;28;20265;-73
2022/01/19 00:39:54;;;;;;;25.73;13.02;;;6.10;99.90;;;;;;5074880;28;20285;-74
2022/01/19 00:42:21;;;;;;;26.10;13.90;;;6.10;99.90;;;;;;5070270;28;20678;-72
2022/01/19 00:44:48;;;;;;;28.70;14.48;;;6.10;99.90;;;;;;5075388;28;20199;-76
2022/01/19 00:47:16;;;;;;;26.70;12.93;;;6.20;99.90;;;;;;5075460;28;20619;-73
2022/01/19 00:49:45;;;;;;;33.35;17.60;;;6.10;99.90;;;;;;5071085;28;20284;-74
2022/01/19 00:52:14;;;;;;;31.15;16.30;;;6.10;99.90;;;;;;5075506;28;20281;-74
2022/01/19 00:54:42;;;;;;;34.10;15.90;;;6.20;99.90;;;;;;5075094;28;20243;-74
2022/01/19 00:57:10;;;;;;;36.70;16.42;;;6.10;99.90;;;;;;5075580;28;20297;-73
2022/01/19 00:59:37;;;;;;;35.75;15.82;;;6.10;99.90;;;;;;5074283;28;20203;-75
2022/01/19 01:02:05;;;;;;;36.38;16.02;;;6.10;99.90;;;;;;5075094;28;20258;-73
2022/01/19 01:04:33;;;;;;;34.00;14.88;;;6.10;99.90;;;;;;5074938;28;20231;-74
2022/01/19 01:07:00;;;;;;;34.75;15.45;;;6.10;99.90;;;;;;5074999;28;20212;-74
2022/01/19 01:09:29;;;;;;;35.60;18.27;;;6.10;99.90;;;;;;5073916;28;20249;-75
2022/01/19 01:12:01;;;;;;;40.55;20.42;;;6.10;99.90;;;;;;5074833;28;20232;-74
2022/01/19 01:18:17;;;;;;;36.35;16.60;;;6.20;99.90;;;;;;5075349;28;20206;-75
2022/01/19 01:20:07;;;;;;;44.65;20.05;;;6.10;99.90;;;;;;5064106;28;20294;-73
2022/01/19 01:22:34;;;;;;;38.97;18.65;;;6.20;99.90;;;;;;5066357;28;20703;-75
2022/01/19 01:25:03;;;;;;;46.75;18.50;;;6.20;99.90;;;;;;5075215;28;20197;-72
2022/01/19 01:27:30;;;;;;;49.00;19.45;;;6.10;99.90;;;;;;5074279;28;20280;-75
2022/01/19 01:29:57;;;;;;;35.42;18.33;;;6.20;99.90;;;;;;5074373;28;20204;-76
2022/01/19 01:32:24;;;;;;;40.10;19.13;;;6.20;99.90;;;;;;5074746;28;20232;-75
2022/01/19 01:34:51;;;;;;;32.30;15.85;;;6.20;99.90;;;;;;5075913;28;20292;-74
2022/01/19 01:37:18;;;;;;;34.47;18.00;;;6.10;99.90;;;;;;5078453;28;20228;-73
2022/01/19 01:39:46;;;;;;;45.53;18.38;;;6.10;99.90;;;;;;5078868;28;20203;-73
2022/01/19 01:42:17;;;;;;;36.72;17.08;;;6.10;99.90;;;;;;5080409;28;20254;-71
2022/01/19 01:44:47;;;;;;;35.42;15.77;;;6.10;99.90;;;;;;5080840;28;20198;-75
2022/01/19 01:47:16;;;;;;;29.33;16.30;;;6.10;99.90;;;;;;5078419;28;20236;-75
2022/01/19 01:53:25;;;;;;;31.20;16.40;;;6.10;99.90;;;;;;5066654;28;20197;-74
2022/01/19 01:55:19;;;;;;;28.45;15.88;;;6.20;99.90;;;;;;5073472;28;20201;-74
2022/01/19 01:57:48;;;;;;;31.70;15.95;;;6.20;99.90;;;;;;5074361;28;20296;-74
2022/01/19 02:00:19;;;;;;;39.10;16.77;;;6.30;99.90;;;;;;5070170;28;20200;-76
2022/01/19 02:02:48;;;;;;;33.72;16.50;;;6.30;99.90;;;;;;5074321;28;20240;-72
2022/01/19 02:05:15;;;;;;;40.35;15.00;;;6.40;99.90;;;;;;5074806;28;20233;-73
2022/01/19 02:07:48;;;;;;;33.85;15.30;;;6.30;99.90;;;;;;5069452;28;20721;-75
2022/01/19 02:10:31;;;;;;;32.35;16.25;;;6.30;99.90;;;;;;5073900;28;20205;-75
2022/01/19 02:16:09;;;;;;;38.50;16.75;;;6.20;99.90;;;;;;5070045;28;20893;-75
2022/01/19 02:24:13;;;;;;;31.02;16.75;;;6.30;99.90;;;;;;5072855;28;20254;-73
2022/01/19 02:26:55;;;;;;;42.97;18.70;;;6.30;99.90;;;;;;5073504;28;20211;-73
2022/01/19 02:40:31;;;;;;;40.38;16.10;;;6.30;99.90;;;;;;5072825;28;20221;-75
2022/01/19 02:43:07;;;;;;;39.47;20.52;;;6.20;99.90;;;;;;5073971;28;20203;-74
2022/01/19 02:51:06;;;;;;;28.77;15.85;;;6.40;99.90;;;;;;5072697;28;20586;-75
2022/01/19 02:53:36;;;;;;;32.42;17.30;;;6.40;99.90;;;;;;5072585;28;20590;-75
2022/01/19 02:56:08;;;;;;;39.72;17.83;;;6.40;99.90;;;;;;5072800;28;20208;-74
2022/01/19 02:58:40;;;;;;;42.13;16.75;;;6.40;99.90;;;;;;5074127;28;20227;-74
2022/01/19 03:09:21;;;;;;;31.58;14.48;;;6.40;99.90;;;;;;5071944;28;20201;-74
2022/01/19 03:11:48;;;;;;;31.33;17.77;;;6.30;99.90;;;;;;5065082;28;20259;-75
2022/01/19 03:14:17;;;;;;;34.58;15.23;;;6.40;99.90;;;;;;5072487;28;20224;-74
2022/01/19 03:16:44;;;;;;;26.30;15.25;;;6.40;99.90;;;;;;5065179;28;20239;-74
2022/01/19 03:19:12;;;;;;;26.92;14.35;;;6.30;99.90;;;;;;5073535;28;20212;-75
2022/01/19 03:21:39;;;;;;;22.85;12.52;;;6.20;99.90;;;;;;5072054;28;20235;-74
2022/01/19 03:24:07;;;;;;;23.05;13.02;;;6.10;99.90;;;;;;5073054;28;20280;-74
2022/01/19 03:26:36;;;;;;;27.10;12.95;;;6.10;99.90;;;;;;5073232;28;20602;-73
2022/01/19 03:29:03;;;;;;;29.20;12.75;;;6.20;99.90;;;;;;5072235;28;20287;-74
2022/01/19 03:31:30;;;;;;;30.13;12.60;;;6.20;99.90;;;;;;5072212;28;20225;-73
2022/01/19 03:33:57;;;;;;;20.38;11.68;;;6.20;99.90;;;;;;5075119;28;20292;-75
2022/01/19 03:36:24;;;;;;;26.35;13.88;;;6.20;99.90;;;;;;5076219;28;20648;-74
2022/01/19 03:38:51;;;;;;;36.10;13.85;;;6.10;99.90;;;;;;5076560;28;20705;-72
2022/01/19 03:41:18;;;;;;;30.40;15.05;;;6.00;99.90;;;;;;5075083;28;20315;-71
2022/01/19 03:43:46;;;;;;;28.27;14.60;;;6.00;99.90;;;;;;5076291;28;20285;-72
2022/01/19 03:46:15;;;;;;;30.00;14.10;;;6.00;99.90;;;;;;5076098;28;20296;-74
2022/01/19 03:48:52;;;;;;;28.52;13.50;;;5.80;99.90;;;;;;5076209;28;20658;-72
2022/01/19 03:51:19;;;;;;;25.08;15.13;;;5.80;99.90;;;;;;5054035;28;20231;-72
2022/01/19 03:53:47;;;;;;;29.80;13.00;;;5.70;99.90;;;;;;5076604;28;20220;-72
2022/01/19 03:56:14;;;;;;;31.67;15.07;;;5.70;99.90;;;;;;5075847;28;20206;-73
2022/01/19 03:58:41;;;;;;;25.00;15.18;;;5.70;99.90;;;;;;5075735;28;20232;-72
2022/01/19 04:01:10;;;;;;;28.50;12.95;;;5.80;99.90;;;;;;5075672;28;20227;-73
2022/01/19 04:04:01;;;;;;;29.38;14.50;;;5.70;99.90;;;;;;5076049;28;20294;-73
2022/01/19 04:06:40;;;;;;;36.60;17.17;;;5.60;99.90;;;;;;5075994;28;20192;-74
2022/01/19 04:09:07;;;;;;;30.30;15.88;;;5.50;99.90;;;;;;5076236;28;20203;-73
2022/01/19 04:11:34;;;;;;;28.27;15.02;;;5.40;99.90;;;;;;5075716;28;20575;-72
2022/01/19 04:16:43;;;;;;;30.70;16.38;;;5.30;99.90;;;;;;5066645;28;20667;-73
2022/01/19 04:19:22;;;;;;;35.00;17.60;;;5.30;99.90;;;;;;5075415;28;20238;-72
2022/01/19 04:21:50;;;;;;;32.28;18.77;;;5.30;99.90;;;;;;5068672;28;20243;-73
2022/01/19 04:24:17;;;;;;;42.10;17.90;;;5.30;99.90;;;;;;5075474;28;20199;-74
2022/01/19 04:26:46;;;;;;;53.15;21.75;;;5.20;99.90;;;;;;5076053;28;20235;-74
2022/01/19 04:29:14;;;;;;;49.15;16.15;;;5.20;99.90;;;;;;5075466;28;20232;-73
2022/01/19 04:31:42;;;;;;;40.88;18.67;;;5.20;99.90;;;;;;5074218;28;20307;-74
2022/01/19 04:34:13;;;;;;;43.17;20.17;;;5.20;99.90;;;;;;5075176;28;20264;-73
2022/01/19 04:37:10;;;;;;;43.45;19.13;;;5.10;99.90;;;;;;5075605;28;20556;-72
2022/01/19 04:45:39;;;;;;;30.48;16.20;;;5.00;99.90;;;;;;5068360;28;20201;-72
2022/01/19 05:01:45;;;;;;;41.90;18.55;;;4.90;99.90;;;;;;5078290;28;20254;-72
2022/01/19 05:04:27;;;;;;;44.50;18.58;;;4.90;99.90;;;;;;5075836;28;20317;-72
2022/01/19 05:07:06;;;;;;;40.00;19.48;;;4.80;99.90;;;;;;5047613;28;20286;-72
2022/01/19 05:15:01;;;;;;;44.40;18.77;;;4.70;99.90;;;;;;5073348;28;20221;-72
2022/01/19 05:17:28;;;;;;;46.35;21.20;;;4.70;99.90;;;;;;5078954;28;20262;-73
2022/01/19 05:19:56;;;;;;;51.90;22.55;;;4.70;99.90;;;;;;5072836;28;20289;-72
2022/01/19 05:22:23;;;;;;;40.13;20.90;;;4.60;99.90;;;;;;5074550;28;20280;-72
2022/01/19 05:24:51;;;;;;;43.13;21.35;;;4.50;99.90;;;;;;5074872;28;20199;-73
2022/01/19 05:27:21;;;;;;;44.20;20.13;;;4.50;99.90;;;;;;5074828;28;20328;-73
2022/01/19 05:29:48;;;;;;;43.85;22.13;;;4.50;99.90;;;;;;5073444;28;21022;-73
2022/01/19 05:32:15;;;;;;;42.40;22.42;;;4.50;99.90;;;;;;5074228;28;20222;-72
2022/01/19 05:34:43;;;;;;;42.78;22.42;;;4.50;99.90;;;;;;5066101;28;20582;-73
2022/01/19 05:37:11;;;;;;;45.35;20.58;;;4.50;99.90;;;;;;5073917;28;20290;-72
2022/01/19 05:39:38;;;;;;;39.75;19.40;;;4.50;99.90;;;;;;5073447;28;20199;-73
2022/01/19 05:42:06;;;;;;;39.30;21.35;;;4.40;99.90;;;;;;5073662;28;20310;-71
2022/01/19 05:44:32;;;;;;;45.10;21.15;;;4.40;99.90;;;;;;5074186;28;20254;-72
2022/01/19 05:46:59;;;;;;;55.15;22.50;;;4.30;99.90;;;;;;5074415;28;20285;-72
2022/01/19 05:49:27;;;;;;;48.20;22.42;;;4.30;99.90;;;;;;5073754;28;20241;-73
2022/01/19 05:51:54;;;;;;;49.03;22.05;;;4.30;99.90;;;;;;5073926;28;20595;-73
2022/01/19 05:54:23;;;;;;;52.33;23.40;;;4.30;99.90;;;;;;5074729;28;20334;-71
2022/01/19 05:56:50;;;;;;;52.08;23.20;;;4.30;99.90;;;;;;5076059;28;20203;-73
2022/01/19 05:59:17;;;;;;;53.78;24.98;;;4.30;99.90;;;;;;5074173;28;20199;-73
2022/01/19 06:01:44;;;;;;;48.45;23.20;;;4.40;99.90;;;;;;5073372;28;20258;-74
2022/01/19 06:04:11;;;;;;;41.03;21.67;;;4.50;99.90;;;;;;5074177;28;20282;-73
2022/01/19 06:06:39;;;;;;;46.42;25.17;;;4.50;99.90;;;;;;5074002;28;20532;-72
2022/01/19 06:09:11;;;;;;;52.78;21.98;;;4.60;99.90;;;;;;5074105;28;20727;-73
2022/01/19 06:11:39;;;;;;;49.30;20.42;;;4.60;99.90;;;;;;5072420;28;20661;-72
2022/01/19 06:14:06;;;;;;;37.85;19.30;;;4.60;99.90;;;;;;5073647;28;20586;-75
2022/01/19 06:16:34;;;;;;;50.05;25.20;;;4.60;99.90;;;;;;5071197;28;20248;-74
2022/01/19 06:19:01;;;;;;;38.63;20.75;;;4.60;99.90;;;;;;5073996;28;20285;-74
2022/01/19 06:21:28;;;;;;;41.40;21.63;;;4.60;99.90;;;;;;5072532;28;20317;-73
2022/01/19 06:23:55;;;;;;;44.22;21.65;;;4.60;99.90;;;;;;5074452;28;20693;-74
2022/01/19 06:26:22;;;;;;;44.13;22.63;;;4.60;99.90;;;;;;5074682;28;20298;-74
2022/01/19 06:28:52;;;;;;;46.63;23.33;;;4.60;99.90;;;;;;5074210;28;20205;-75
2022/01/19 06:31:28;;;;;;;43.42;21.90;;;4.60;99.90;;;;;;5069773;28;20287;-74
2022/01/19 06:33:55;;;;;;;55.65;25.38;;;4.50;99.90;;;;;;5064305;28;20213;-73
2022/01/19 06:36:22;;;;;;;54.63;24.73;;;4.50;99.90;;;;;;5065145;28;20687;-75
2022/01/19 06:38:49;;;;;;;49.25;23.75;;;4.60;99.90;;;;;;5073427;28;20202;-73
2022/01/19 06:41:16;;;;;;;49.25;22.75;;;4.50;99.90;;;;;;5072528;28;20540;-74
2022/01/19 06:43:43;;;;;;;56.45;24.70;;;4.50;99.90;;;;;;5065940;28;20198;-72
2022/01/19 06:46:11;;;;;;;49.58;23.98;;;4.30;99.90;;;;;;5072814;28;20238;-74
2022/01/19 06:48:38;;;;;;;48.05;22.63;;;4.40;99.90;;;;;;5073501;28;20298;-73
2022/01/19 06:51:05;;;;;;;48.05;24.42;;;4.40;99.90;;;;;;5070814;28;20594;-74
2022/01/19 06:53:32;;;;;;;48.20;23.15;;;4.40;99.90;;;;;;5072291;28;20265;-76
2022/01/19 06:56:00;;;;;;;51.38;25.48;;;4.30;99.90;;;;;;5074302;28;20289;-73
2022/01/19 06:58:28;;;;;;;47.58;23.27;;;4.30;99.90;;;;;;5072720;28;20214;-75
2022/01/19 07:00:55;;;;;;;50.53;25.42;;;4.20;99.90;;;;;;5073134;28;20633;-74
2022/01/19 07:03:24;;;;;;;67.70;25.48;;;4.10;99.90;;;;;;5073275;28;20315;-74
2022/01/19 07:05:51;;;;;;;59.75;25.92;;;4.00;99.90;;;;;;5074379;28;20209;-73
2022/01/19 07:08:19;;;;;;;60.50;26.25;;;3.90;99.90;;;;;;5074996;28;20204;-75
2022/01/19 07:10:46;;;;;;;66.15;25.90;;;3.90;99.90;;;;;;5076636;28;20294;-75
2022/01/19 07:13:13;;;;;;;57.25;27.75;;;3.90;99.90;;;;;;5077015;28;20565;-76
2022/01/19 07:15:40;;;;;;;60.63;27.58;;;3.90;99.90;;;;;;5078116;28;20600;-77
2022/01/19 07:18:07;;;;;;;63.33;28.50;;;4.00;99.90;;;;;;5077274;28;20203;-78
2022/01/19 07:20:36;;;;;;;67.70;31.00;;;4.00;99.90;;;;;;5076756;28;20302;-77
2022/01/19 07:23:03;;;;;;;64.15;30.67;;;4.10;99.90;;;;;;5078239;28;20621;-77
2022/01/19 07:25:31;;;;;;;71.43;31.15;;;4.20;99.90;;;;;;5077695;28;20234;-78
2022/01/19 07:27:58;;;;;;;56.58;29.92;;;4.20;99.90;;;;;;5077358;28;20229;-75
2022/01/19 07:30:25;;;;;;;72.07;30.80;;;4.20;99.90;;;;;;5077976;28;20703;-80
2022/01/19 07:32:55;;;;;;;51.95;26.58;;;4.30;99.90;;;;;;5071159;28;20723;-78
2022/01/19 07:35:22;;;;;;;63.38;28.27;;;4.40;99.90;;;;;;5078494;28;20690;-78
2022/01/19 07:37:53;;;;;;;60.42;30.40;;;4.40;99.90;;;;;;5079901;28;20244;-81
2022/01/19 07:40:22;;;;;;;68.80;29.75;;;4.40;99.90;;;;;;5078256;28;20226;-81
2022/01/19 07:42:50;;;;;;;65.80;29.60;;;4.50;99.90;;;;;;5073131;28;20253;-82
2022/01/19 07:45:17;;;;;;;68.65;35.20;;;4.60;99.90;;;;;;5077854;28;20202;-80
2022/01/19 07:47:45;;;;;;;67.32;31.95;;;4.70;99.90;;;;;;5078290;28;20201;-80
2022/01/19 07:50:12;;;;;;;68.32;33.38;;;4.50;99.90;;;;;;5077294;28;20262;-80
2022/01/19 07:52:46;;;;;;;61.35;29.50;;;4.50;99.90;;;;;;5076522;28;20219;-79
2022/01/19 07:55:15;;;;;;;52.35;28.85;;;4.50;99.90;;;;;;5077231;28;20215;-80
2022/01/19 07:57:47;;;;;;;49.17;28.25;;;4.60;99.90;;;;;;5079374;28;20202;-80
2022/01/19 08:00:15;;;;;;;60.35;30.48;;;4.60;99.90;;;;;;5079570;28;20209;-80
2022/01/19 08:02:42;;;;;;;64.15;29.77;;;4.60;99.90;;;;;;5071832;28;20685;-79
2022/01/19 08:05:10;;;;;;;64.07;33.75;;;4.70;99.90;;;;;;5077389;28;20203;-78
2022/01/19 08:07:37;;;;;;;62.22;31.52;;;4.80;99.90;;;;;;5077829;28;20243;-77
2022/01/19 08:10:06;;;;;;;64.70;30.45;;;4.90;99.90;;;;;;5071710;28;20235;-79
2022/01/19 08:12:34;;;;;;;61.50;30.25;;;5.00;99.90;;;;;;5078074;28;20246;-77
2022/01/19 08:15:02;;;;;;;70.15;31.27;;;5.00;99.90;;;;;;5078085;28;20251;-81
2022/01/19 08:17:29;;;;;;;59.33;29.17;;;5.10;99.90;;;;;;5078450;28;20207;-79
2022/01/19 08:19:57;;;;;;;61.63;28.70;;;5.10;99.90;;;;;;5075889;28;20734;-78
2022/01/19 08:22:25;;;;;;;58.95;31.08;;;5.10;99.90;;;;;;5079310;28;20231;-78
2022/01/19 08:24:52;;;;;;;68.10;30.90;;;5.20;99.90;;;;;;5086329;28;20195;-78
2022/01/19 08:27:27;;;;;;;55.20;28.95;;;5.20;99.90;;;;;;5087628;28;20279;-80
2022/01/19 08:29:57;;;;;;;59.97;28.10;;;5.30;99.90;;;;;;5082311;28;20708;-80
2022/01/19 08:32:24;;;;;;;52.25;28.33;;;5.30;99.90;;;;;;5069874;28;20211;-81
2022/01/19 08:34:51;;;;;;;57.75;27.35;;;5.30;99.90;;;;;;5078636;28;20571;-77
2022/01/19 08:37:20;;;;;;;69.18;29.00;;;5.20;99.90;;;;;;5077056;28;20233;-78
2022/01/19 08:39:47;;;;;;;62.10;29.00;;;5.20;99.90;;;;;;5075893;28;20306;-78
2022/01/19 08:42:15;;;;;;;63.20;32.17;;;5.30;99.90;;;;;;5075760;28;20231;-79
2022/01/19 08:44:45;;;;;;;55.75;28.42;;;5.10;99.90;;;;;;5075255;28;20597;-79
2022/01/19 08:47:14;;;;;;;53.55;30.92;;;5.20;99.90;;;;;;5077025;28;20210;-79
2022/01/19 08:49:42;;;;;;;55.05;29.25;;;5.10;99.90;;;;;;5076676;28;20210;-79
2022/01/19 08:52:09;;;;;;;57.38;28.73;;;5.20;99.90;;;;;;5076672;28;20611;-79
2022/01/19 08:54:37;;;;;;;55.70;26.05;;;5.20;99.90;;;;;;5075557;28;20268;-78
2022/01/19 08:57:05;;;;;;;56.95;28.63;;;5.10;99.90;;;;;;5076394;28;20203;-77
2022/01/19 08:59:37;;;;;;;49.70;27.63;;;5.10;99.90;;;;;;5074780;28;20627;-79
2022/01/19 09:02:06;;;;;;;54.97;30.83;;;5.20;99.90;;;;;;5077077;28;20329;-78
2022/01/19 09:04:39;;;;;;;50.45;26.55;;;5.10;99.90;;;;;;5075069;28;20642;-77
2022/01/19 09:07:07;;;;;;;56.45;26.60;;;5.30;99.90;;;;;;5075708;28;20207;-78
2022/01/19 09:09:37;;;;;;;53.20;30.70;;;5.20;99.90;;;;;;5075941;28;20209;-78
2022/01/19 09:12:05;;;;;;;51.75;30.08;;;5.20;99.90;;;;;;5076231;28;20305;-78
2022/01/19 09:14:35;;;;;;;53.78;28.20;;;5.20;99.90;;;;;;5075734;28;20218;-79
2022/01/19 09:17:07;;;;;;;54.35;30.63;;;5.10;99.90;;;;;;5076131;28;20274;-79
2022/01/19 09:19:39;;;;;;;54.47;28.58;;;5.10;99.90;;;;;;5075912;28;20703;-78
2022/01/19 09:22:07;;;;;;;54.50;27.23;;;5.00;99.90;;;;;;5071797;28;20341;-78
2022/01/19 09:24:44;;;;;;;44.72;27.23;;;5.00;99.90;;;;;;5075432;28;20249;-78
2022/01/19 09:27:14;;;;;;;57.92;29.70;;;5.10;99.90;;;;;;5075214;28;20234;-78
2022/01/19 09:29:45;;;;;;;51.38;29.65;;;5.00;99.90;;;;;;5075286;28;20210;-78
2022/01/19 09:32:54;;;;;;;60.17;29.08;;;5.00;99.90;;;;;;5133169;22;20368;-78
2022/01/19 09:35:25;;;;;;;60.25;31.88;;;5.00;99.90;;;;;;5077815;28;20230;-78
2022/01/19 09:37:53;;;;;;;76.53;31.98;;;5.00;99.90;;;;;;5091256;28;20233;-79
2022/01/19 09:40:20;;;;;;;52.92;30.67;;;5.00;99.90;;;;;;5099417;28;20244;-78
2022/01/19 09:42:50;;;;;;;56.00;31.13;;;4.90;99.90;;;;;;5105924;28;20226;-78
2022/01/19 09:45:17;;;;;;;57.30;33.90;;;5.00;99.90;;;;;;5099594;28;20251;-79
2022/01/19 09:47:47;;;;;;;67.25;34.50;;;5.00;99.90;;;;;;5099661;28;20226;-77
2022/01/19 09:50:13;;;;;;;54.53;31.80;;;5.10;99.90;;;;;;5096022;28;20248;-78
2022/01/19 09:52:42;;;;;;;47.72;28.48;;;5.00;99.90;;;;;;5096818;28;20249;-78
2022/01/19 09:55:13;;;;;;;49.25;29.80;;;5.00;99.90;;;;;;5096586;28;20675;-77
2022/01/19 09:57:41;;;;;;;52.08;30.70;;;5.00;99.90;;;;;;5095390;28;20213;-77
2022/01/19 10:00:10;;;;;;;51.28;28.77;;;5.00;99.90;;;;;;5094699;28;20210;-77
2022/01/19 10:02:38;;;;;;;40.38;27.23;;;4.90;99.90;;;;;;5096594;28;21031;-79
2022/01/19 10:05:08;;;;;;;45.70;30.52;;;5.00;99.90;;;;;;5095807;28;20224;-78
2022/01/19 10:07:37;;;;;;;47.83;31.77;;;5.00;99.90;;;;;;5096248;28;20198;-78
2022/01/19 10:10:10;;;;;;;50.25;28.60;;;5.10;99.90;;;;;;5095707;28;20255;-78
2022/01/19 10:18:13;;;;;;;42.85;26.95;;;5.10;99.90;;;;;;5097021;28;20198;-78
2022/01/19 10:20:42;;;;;;;45.05;27.02;;;5.10;99.90;;;;;;5098153;28;20202;-80
2022/01/19 10:23:36;;;;;;;58.97;29.67;;;5.10;99.90;;;;;;5103333;28;20206;-79
2022/01/19 10:26:07;;;;;;;45.70;29.40;;;5.00;99.90;;;;;;5105796;28;20194;-79
2022/01/19 10:29:00;;;;;;;41.55;28.85;;;5.00;99.90;;;;;;5110998;28;20261;-79
2022/01/19 10:31:28;;;;;;;54.03;30.45;;;5.00;99.90;;;;;;5107034;28;20232;-80
2022/01/19 10:34:14;;;;;;;53.35;31.23;;;5.00;99.90;;;;;;5100805;28;20218;-79
2022/01/19 10:36:45;;;;;;;57.50;29.75;;;5.10;99.90;;;;;;5096226;28;20202;-80
2022/01/19 10:39:13;;;;;;;54.00;30.25;;;5.10;99.90;;;;;;5096179;28;20281;-78
2022/01/19 10:42:03;;;;;;;51.13;31.27;;;5.00;99.90;;;;;;5096143;28;20221;-79
2022/01/19 10:44:36;;;;;;;51.58;29.02;;;5.10;99.90;;;;;;5088798;28;20198;-79
2022/01/19 10:47:04;;;;;;;53.13;33.35;;;5.00;99.90;;;;;;5098918;28;20230;-79
2022/01/19 10:49:48;;;;;;;52.38;32.00;;;5.10;99.90;;;;;;5099414;28;20213;-78
2022/01/19 10:52:31;;;;;;;57.60;32.72;;;5.00;99.90;;;;;;5099775;28;20226;-78
2022/01/19 10:54:59;;;;;;;53.70;30.35;;;5.10;99.90;;;;;;5099668;28;20226;-79
2022/01/19 10:57:37;;;;;;;48.95;29.70;;;5.00;99.90;;;;;;5099533;28;20225;-80
2022/01/19 11:00:18;;;;;;;66.60;34.22;;;5.20;99.90;;;;;;5099944;28;20214;-79
2022/01/19 11:02:52;;;;;;;65.22;34.47;;;5.10;99.90;;;;;;5099229;28;20221;-79
2022/01/19 11:05:44;;;;;;;63.22;31.48;;;5.10;99.90;;;;;;5093478;28;20269;-80
2022/01/19 11:08:13;;;;;;;50.00;31.30;;;5.10;99.90;;;;;;5099338;28;20207;-79
2022/01/19 11:10:47;;;;;;;50.03;33.00;;;5.10;99.90;;;;;;5098954;28;20232;-80
2022/01/19 11:13:26;;;;;;;56.67;35.15;;;5.20;99.90;;;;;;5098925;28;20206;-78
2022/01/19 11:15:53;;;;;;;62.00;34.90;;;5.20;99.90;;;;;;5098039;28;20699;-80
2022/01/19 11:18:25;;;;;;;58.97;32.40;;;5.20;99.90;;;;;;5099536;28;20210;-79
2022/01/19 11:20:59;;;;;;;47.88;32.25;;;5.30;99.90;;;;;;5098858;28;20320;-80
2022/01/19 11:23:34;;;;;;;47.28;28.70;;;5.30;99.90;;;;;;5098481;28;20566;-80
2022/01/19 11:26:04;;;;;;;41.85;26.80;;;5.60;99.90;;;;;;5098401;28;20205;-78
2022/01/19 11:28:36;;;;;;;46.17;25.88;;;5.80;99.90;;;;;;5099876;28;20233;-80
2022/01/19 11:31:08;;;;;;;39.60;25.17;;;6.00;99.90;;;;;;5097192;28;20240;-79
2022/01/19 11:33:42;;;;;;;37.50;22.42;;;6.10;99.90;;;;;;5098442;28;20212;-78
2022/01/19 11:36:20;;;;;;;37.38;25.15;;;6.10;99.90;;;;;;5079265;28;20251;-78
2022/01/19 11:38:49;;;;;;;50.50;25.55;;;6.10;99.90;;;;;;5098178;28;20258;-79
2022/01/19 11:41:54;;;;;;;47.00;26.40;;;6.10;99.90;;;;;;5097207;28;20228;-78
2022/01/19 11:44:39;;;;;;;39.47;23.92;;;6.00;99.90;;;;;;5095846;28;20253;-80
2022/01/19 11:47:21;;;;;;;38.85;24.15;;;6.20;99.90;;;;;;5094713;28;20199;-77
2022/01/19 11:49:52;;;;;;;39.80;24.30;;;6.20;99.90;;;;;;5091261;28;20270;-79
2022/01/19 11:52:24;;;;;;;41.28;24.10;;;6.20;99.90;;;;;;5095790;28;20219;-78
2022/01/19 11:55:09;;;;;;;41.08;24.70;;;6.30;99.90;;;;;;5099325;28;20777;-79
2022/01/19 11:57:38;;;;;;;42.53;23.15;;;6.10;99.90;;;;;;5098002;28;20211;-78
2022/01/19 12:00:20;;;;;;;40.50;21.40;;;6.10;99.90;;;;;;5096934;28;20202;-79
2022/01/19 12:02:53;;;;;;;36.78;22.65;;;6.40;99.90;;;;;;5098482;28;20666;-79
2022/01/19 12:05:29;;;;;;;40.90;23.85;;;6.30;99.90;;;;;;5097143;28;20677;-78
2022/01/19 12:07:59;;;;;;;40.50;23.90;;;6.10;99.90;;;;;;5098041;28;20206;-79
2022/01/19 12:10:59;;;;;;;35.85;21.75;;;6.10;99.90;;;;;;5096995;28;20206;-78
2022/01/19 12:16:52;;;;;;;44.75;26.58;;;6.10;99.90;;;;;;5098472;28;20199;-79
2022/01/19 12:19:23;;;;;;;48.22;27.08;;;6.00;99.90;;;;;;5099127;28;20210;-78
2022/01/19 12:21:55;;;;;;;39.55;25.55;;;5.80;99.90;;;;;;5098336;28;20750;-79
2022/01/19 12:24:29;;;;;;;45.17;27.00;;;5.90;99.90;;;;;;5098712;28;20206;-78
2022/01/19 12:27:09;;;;;;;46.97;26.00;;;5.80;99.90;;;;;;5101488;28;20205;-79
2022/01/19 12:29:49;;;;;;;53.67;28.58;;;5.80;99.90;;;;;;5105835;28;20202;-77
2022/01/19 12:33:04;;;;;;;47.67;25.30;;;5.80;99.90;;;;;;5099277;28;20317;-78
2022/01/19 12:35:36;;;;;;;47.60;27.10;;;5.70;99.90;;;;;;5097794;28;20253;-78
2022/01/19 12:38:08;;;;;;;48.20;25.48;;;5.70;99.90;;;;;;5097600;28;20258;-78
2022/01/19 12:40:41;;;;;;;49.85;29.13;;;5.70;99.90;;;;;;5097170;28;20227;-80
2022/01/19 12:43:14;;;;;;;50.22;28.35;;;5.60;99.90;;;;;;5097856;28;20201;-79
2022/01/19 12:45:49;;;;;;;49.40;29.90;;;5.70;99.90;;;;;;5098221;28;20198;-79
2022/01/19 12:48:41;;;;;;;56.97;29.38;;;5.70;99.90;;;;;;5097984;28;20211;-78
2022/01/19 12:51:42;;;;;;;47.20;30.45;;;5.70;99.90;;;;;;5096190;28;20234;-79
2022/01/19 12:54:13;;;;;;;49.78;29.20;;;5.80;99.90;;;;;;5093251;28;20304;-79
2022/01/19 12:56:53;;;;;;;58.17;33.38;;;5.80;99.90;;;;;;5096411;28;20223;-78
2022/01/19 12:59:21;;;;;;;61.67;34.03;;;5.80;99.90;;;;;;5105240;28;20208;-79
2022/01/19 13:01:48;;;;;;;49.55;30.17;;;5.80;99.90;;;;;;5108255;28;20226;-79
2022/01/19 13:04:25;;;;;;;56.22;31.00;;;5.70;99.90;;;;;;5110899;28;20206;-78
2022/01/19 13:06:54;;;;;;;48.92;30.13;;;5.70;99.90;;;;;;5096215;28;20231;-77
2022/01/19 13:09:29;;;;;;;55.80;31.90;;;5.70;99.90;;;;;;5099181;28;20285;-79
2022/01/19 13:11:56;;;;;;;52.42;29.90;;;5.70;99.90;;;;;;5102399;28;20233;-77
2022/01/19 13:14:25;;;;;;;55.25;28.60;;;5.70;99.90;;;;;;5099485;28;20205;-75
2022/01/19 13:16:54;;;;;;;55.88;32.22;;;5.80;99.90;;;;;;5093458;28;20246;-76
2022/01/19 13:19:23;;;;;;;56.40;31.15;;;5.80;99.90;;;;;;5097540;28;20195;-79
2022/01/19 13:21:53;;;;;;;47.88;30.02;;;5.80;99.90;;;;;;5092863;28;20231;-80
2022/01/19 13:24:25;;;;;;;51.28;30.33;;;5.90;99.90;;;;;;5097358;28;20204;-81
2022/01/19 13:26:58;;;;;;;56.17;31.67;;;5.90;99.90;;;;;;5097322;28;20207;-82
2022/01/19 13:29:27;;;;;;;55.28;32.42;;;5.90;99.90;;;;;;5096014;28;20360;-80
2022/01/19 13:32:13;;;;;;;60.75;32.35;;;5.90;99.90;;;;;;5096377;28;20230;-81
2022/01/19 13:34:55;;;;;;;57.30;34.38;;;5.80;99.90;;;;;;5096717;28;20643;-81
2022/01/19 13:37:25;;;;;;;53.13;31.80;;;5.90;99.90;;;;;;5097355;28;20218;-79
2022/01/19 13:39:58;;;;;;;66.30;36.28;;;5.80;99.90;;;;;;5095371;28;20652;-81
2022/01/19 13:42:37;;;;;;;57.75;32.20;;;5.90;99.90;;;;;;5096363;28;20222;-80
2022/01/19 13:45:09;;;;;;;62.78;35.15;;;5.90;99.90;;;;;;5096128;28;20229;-80
2022/01/19 13:47:54;;;;;;;60.70;35.85;;;5.90;99.90;;;;;;5096725;28;20202;-80
2022/01/19 13:50:21;;;;;;;59.88;34.75;;;5.90;99.90;;;;;;5096582;28;20208;-81
2022/01/19 13:52:51;;;;;;;55.25;31.98;;;5.90;99.90;;;;;;5096314;28;20214;-79
2022/01/19 13:55:19;;;;;;;66.68;34.35;;;5.90;99.90;;;;;;5096628;28;20621;-81
2022/01/19 13:57:47;;;;;;;54.17;32.97;;;5.80;99.90;;;;;;5096360;28;20716;-79
2022/01/19 14:00:17;;;;;;;68.05;35.13;;;5.80;99.90;;;;;;5095345;28;20208;-80
2022/01/19 14:02:59;;;;;;;62.50;37.47;;;5.90;99.90;;;;;;5096422;28;20226;-80
2022/01/19 14:05:38;;;;;;;64.88;36.53;;;5.70;99.90;;;;;;5095073;28;20201;-79
2022/01/19 14:08:10;;;;;;;60.22;33.30;;;5.70;99.90;;;;;;5095762;28;20265;-80
2022/01/19 14:10:45;;;;;;;61.40;34.50;;;5.80;99.90;;;;;;5095792;28;20198;-80